Alpha, Michigan
Current Conditions -  °F | °C
As of 4:54 PM on Saturday 20 Dec 2014 (Local Time) from KIMT Reporting Station
Overcast Overcast  
Wind Chill: 28°   Ceiling: 3100
Heat Index: 28°   Visibility: 10mi
Dew Point: 23°   Wind: 3mph
Humidity: 81%   Direction: 130°SE
Pressure: 30.18"   Gusts: NA
Location:  46.04°N, 88.38°W
Report Text: KIMT 202254Z AUTO 13003KT 10SM OVC031 M02/M05 A3018 RMK AO2 SLP241 T10221050
Loading
Personal Weather Stations






























Interactive Weather Map New forecast layout! Learn more

10-Day Weather Forecast

Advertisements
Track Severe Weather on mobile